createdAt,value
2018-12-06T00:03:00.000Z,1.0
2018-12-06T00:08:00.000Z,1.0
2018-12-06T00:13:00.000Z,1.1
2018-12-06T00:18:00.000Z,1.2
2018-12-06T00:23:00.000Z,1.3
2018-12-06T00:29:00.000Z,1.4
2018-12-06T00:34:00.000Z,1.5
2018-12-06T00:39:00.000Z,1.6
2018-12-06T00:44:00.000Z,1.6
2018-12-06T00:49:00.000Z,1.7
2018-12-06T00:54:00.000Z,1.7
2018-12-06T00:59:00.000Z,1.8
2018-12-06T01:04:00.000Z,1.9
2018-12-06T01:09:00.000Z,1.9
2018-12-06T01:14:00.000Z,1.9
2018-12-06T01:19:00.000Z,1.9
2018-12-06T01:24:00.000Z,1.9
2018-12-06T01:29:00.000Z,1.8
2018-12-06T01:34:00.000Z,1.8
2018-12-06T01:39:00.000Z,1.8
2018-12-06T01:44:00.000Z,1.7
2018-12-06T01:49:00.000Z,1.7
2018-12-06T01:54:00.000Z,1.7
2018-12-06T01:59:00.000Z,1.7
2018-12-06T02:04:00.000Z,1.7
2018-12-06T02:09:00.000Z,1.7
2018-12-06T02:14:00.000Z,1.7
2018-12-06T02:19:00.000Z,1.8
2018-12-06T02:24:00.000Z,1.8
2018-12-06T02:29:00.000Z,1.8
2018-12-06T02:34:00.000Z,1.8
2018-12-06T02:39:00.000Z,1.8
2018-12-06T02:44:00.000Z,1.8
2018-12-06T02:49:00.000Z,1.9
2018-12-06T02:54:00.000Z,1.8
2018-12-06T02:59:00.000Z,1.8
2018-12-06T03:04:00.000Z,1.8
2018-12-06T03:09:00.000Z,1.8
2018-12-06T03:14:00.000Z,1.8
2018-12-06T03:19:00.000Z,1.8
2018-12-06T03:24:00.000Z,1.8
2018-12-06T03:29:00.000Z,1.8
2018-12-06T03:34:00.000Z,1.7
2018-12-06T03:39:00.000Z,1.6
2018-12-06T03:44:00.000Z,1.6
2018-12-06T03:49:00.000Z,1.5
2018-12-06T03:54:00.000Z,1.5
2018-12-06T03:59:00.000Z,1.5
2018-12-06T04:04:00.000Z,1.5
2018-12-06T04:09:00.000Z,1.5
2018-12-06T04:14:00.000Z,1.5
2018-12-06T04:19:00.000Z,1.5
2018-12-06T04:24:00.000Z,1.5
2018-12-06T04:29:00.000Z,1.6
2018-12-06T04:34:00.000Z,1.6
2018-12-06T04:39:00.000Z,1.7
2018-12-06T04:44:00.000Z,1.7
2018-12-06T04:49:00.000Z,1.8
2018-12-06T04:54:00.000Z,1.9
2018-12-06T04:59:00.000Z,1.9
2018-12-06T05:04:00.000Z,1.9
2018-12-06T05:09:00.000Z,2.0
2018-12-06T05:14:00.000Z,2.1
2018-12-06T05:19:00.000Z,2.2
2018-12-06T05:24:00.000Z,2.3
2018-12-06T05:29:00.000Z,2.3
2018-12-06T05:34:00.000Z,2.4
2018-12-06T05:39:00.000Z,2.4
2018-12-06T05:44:00.000Z,2.5
2018-12-06T05:49:00.000Z,2.5
2018-12-06T05:54:00.000Z,2.5
2018-12-06T05:59:00.000Z,2.5
2018-12-06T06:04:00.000Z,2.5
2018-12-06T06:09:00.000Z,2.5
2018-12-06T06:14:00.000Z,2.5
2018-12-06T06:19:00.000Z,2.6
2018-12-06T06:24:00.000Z,2.6
2018-12-06T06:30:00.000Z,2.6
2018-12-06T06:35:00.000Z,2.7
2018-12-06T06:40:00.000Z,2.8
2018-12-06T06:45:00.000Z,2.8
2018-12-06T06:50:00.000Z,2.9
2018-12-06T06:55:00.000Z,2.9
2018-12-06T07:00:00.000Z,2.9
2018-12-06T07:05:00.000Z,2.9
2018-12-06T07:10:00.000Z,2.9
2018-12-06T07:15:00.000Z,3.0
2018-12-06T07:20:00.000Z,3.0
2018-12-06T07:25:00.000Z,3.0
2018-12-06T07:30:00.000Z,3.0
2018-12-06T07:35:00.000Z,3.1
2018-12-06T07:40:00.000Z,3.3
2018-12-06T07:45:00.000Z,3.3
2018-12-06T07:50:00.000Z,3.3
2018-12-06T07:55:00.000Z,3.3
2018-12-06T08:00:00.000Z,3.4
2018-12-06T08:05:00.000Z,3.5
2018-12-06T08:10:00.000Z,3.6
2018-12-06T08:15:00.000Z,3.7
2018-12-06T08:20:00.000Z,3.7
2018-12-06T08:25:00.000Z,3.6
2018-12-06T08:30:00.000Z,3.6
2018-12-06T08:35:00.000Z,3.5
2018-12-06T08:40:00.000Z,3.5
2018-12-06T08:45:00.000Z,3.6
2018-12-06T08:50:00.000Z,3.6
2018-12-06T08:55:00.000Z,3.7
2018-12-06T09:00:00.000Z,3.8
2018-12-06T09:05:00.000Z,3.9
2018-12-06T09:10:00.000Z,3.9
2018-12-06T09:15:00.000Z,4.0
2018-12-06T09:20:00.000Z,4.0
2018-12-06T09:25:00.000Z,4.0
2018-12-06T09:30:00.000Z,4.1
2018-12-06T09:35:00.000Z,4.3
2018-12-06T09:40:00.000Z,4.4
2018-12-06T09:45:00.000Z,4.5
2018-12-06T09:50:00.000Z,4.4
2018-12-06T09:55:00.000Z,4.3
2018-12-06T10:00:00.000Z,4.2
2018-12-06T10:05:00.000Z,4.2
2018-12-06T10:10:00.000Z,4.2
2018-12-06T10:15:00.000Z,4.3
2018-12-06T10:20:00.000Z,4.4
2018-12-06T10:25:00.000Z,4.3
2018-12-06T10:30:00.000Z,4.3
2018-12-06T10:35:00.000Z,4.4
2018-12-06T10:40:00.000Z,4.4
2018-12-06T10:45:00.000Z,4.4
2018-12-06T10:50:00.000Z,4.5
2018-12-06T10:55:00.000Z,4.5
2018-12-06T11:00:00.000Z,4.6
2018-12-06T11:05:00.000Z,4.8
2018-12-06T11:10:00.000Z,4.8
2018-12-06T11:15:00.000Z,4.9
2018-12-06T11:20:00.000Z,4.8
2018-12-06T11:25:00.000Z,4.8
2018-12-06T11:30:00.000Z,4.7
2018-12-06T11:35:00.000Z,4.6
2018-12-06T11:40:00.000Z,4.6
2018-12-06T11:45:00.000Z,4.6
2018-12-06T11:50:00.000Z,4.6
2018-12-06T11:55:00.000Z,4.7
2018-12-06T12:00:00.000Z,4.7
2018-12-06T12:05:00.000Z,4.7
2018-12-06T12:10:00.000Z,4.7
2018-12-06T12:16:00.000Z,4.6
2018-12-06T12:21:00.000Z,4.5
2018-12-06T12:26:00.000Z,4.4
2018-12-06T12:31:00.000Z,4.4
2018-12-06T12:36:00.000Z,4.4
2018-12-06T12:41:00.000Z,4.3
2018-12-06T12:46:00.000Z,4.3
2018-12-06T12:51:00.000Z,4.2
2018-12-06T12:56:00.000Z,4.2
2018-12-06T13:01:00.000Z,4.2
2018-12-06T13:06:00.000Z,4.1
2018-12-06T13:11:00.000Z,4.1
2018-12-06T13:16:00.000Z,4.1
2018-12-06T13:21:00.000Z,4.0
2018-12-06T13:26:00.000Z,3.9
2018-12-06T13:31:00.000Z,3.8
2018-12-06T13:36:00.000Z,3.7
2018-12-06T13:41:00.000Z,3.7
2018-12-06T13:46:00.000Z,3.7
2018-12-06T13:51:00.000Z,3.6
2018-12-06T13:56:00.000Z,3.6
2018-12-06T14:01:00.000Z,3.6
2018-12-06T14:06:00.000Z,3.6
2018-12-06T14:11:00.000Z,3.6
2018-12-06T14:16:00.000Z,3.6
2018-12-06T14:21:00.000Z,3.6
2018-12-06T14:26:00.000Z,3.6
2018-12-06T14:31:00.000Z,3.6
2018-12-06T14:36:00.000Z,3.6
2018-12-06T14:41:00.000Z,3.6
2018-12-06T14:46:00.000Z,3.7
2018-12-06T14:51:00.000Z,3.7
2018-12-06T14:56:00.000Z,3.7
2018-12-06T15:01:00.000Z,3.7
2018-12-06T15:06:00.000Z,3.7
2018-12-06T15:11:00.000Z,3.7
2018-12-06T15:16:00.000Z,3.7
2018-12-06T15:21:00.000Z,3.7
2018-12-06T15:26:00.000Z,3.7
2018-12-06T15:31:00.000Z,3.7
2018-12-06T15:36:00.000Z,3.7
2018-12-06T15:41:00.000Z,3.7
2018-12-06T15:46:00.000Z,3.7
2018-12-06T15:51:00.000Z,3.7
2018-12-06T15:56:00.000Z,3.7
2018-12-06T16:01:00.000Z,3.8
2018-12-06T16:06:00.000Z,3.8
2018-12-06T16:11:00.000Z,3.8
2018-12-06T16:16:00.000Z,3.8
2018-12-06T16:21:00.000Z,3.7
2018-12-06T16:26:00.000Z,3.7
2018-12-06T16:31:00.000Z,3.7
2018-12-06T16:36:00.000Z,3.6
2018-12-06T16:41:00.000Z,3.6
2018-12-06T16:46:00.000Z,3.6
2018-12-06T16:51:00.000Z,3.6
2018-12-06T16:56:00.000Z,3.6
2018-12-06T17:01:00.000Z,3.6
2018-12-06T17:06:00.000Z,3.7
2018-12-06T17:11:00.000Z,3.7
2018-12-06T17:16:00.000Z,3.7
2018-12-06T17:21:00.000Z,3.7
2018-12-06T17:26:00.000Z,3.6
2018-12-06T17:31:00.000Z,3.6
2018-12-06T17:36:00.000Z,3.6
2018-12-06T17:41:00.000Z,3.7
2018-12-06T17:46:00.000Z,3.6
2018-12-06T17:51:00.000Z,3.6
2018-12-06T17:56:00.000Z,3.5
2018-12-06T18:01:00.000Z,3.5
2018-12-06T18:06:00.000Z,3.4
2018-12-06T18:11:00.000Z,3.5
2018-12-06T18:16:00.000Z,3.4
2018-12-06T18:22:00.000Z,3.5
2018-12-06T18:27:00.000Z,3.5
2018-12-06T18:32:00.000Z,3.5
2018-12-06T18:37:00.000Z,3.6
2018-12-06T18:42:00.000Z,3.6
2018-12-06T18:47:00.000Z,3.6
2018-12-06T18:52:00.000Z,3.6
2018-12-06T18:57:00.000Z,3.7
2018-12-06T19:02:00.000Z,3.7
2018-12-06T19:07:00.000Z,3.7
2018-12-06T19:12:00.000Z,3.7
2018-12-06T19:17:00.000Z,3.7
2018-12-06T19:22:00.000Z,3.7
2018-12-06T19:27:00.000Z,3.7
2018-12-06T19:32:00.000Z,3.6
2018-12-06T19:37:00.000Z,3.6
2018-12-06T19:42:00.000Z,3.6
2018-12-06T19:47:00.000Z,3.6
2018-12-06T19:52:00.000Z,3.7
2018-12-06T19:57:00.000Z,3.7
2018-12-06T20:02:00.000Z,3.8
2018-12-06T20:07:00.000Z,3.9
2018-12-06T20:12:00.000Z,3.9
2018-12-06T20:17:00.000Z,3.9
2018-12-06T20:22:00.000Z,3.9
2018-12-06T20:27:00.000Z,3.9
2018-12-06T20:32:00.000Z,3.9
2018-12-06T20:37:00.000Z,3.9
2018-12-06T20:42:00.000Z,3.8
2018-12-06T20:47:00.000Z,3.8
2018-12-06T20:52:00.000Z,3.8
2018-12-06T20:57:00.000Z,3.8
2018-12-06T21:02:00.000Z,3.9
2018-12-06T21:07:00.000Z,3.9
2018-12-06T21:12:00.000Z,3.9
2018-12-06T21:17:00.000Z,4.0
2018-12-06T21:22:00.000Z,4.1
2018-12-06T21:27:00.000Z,4.1
2018-12-06T21:32:00.000Z,4.1
2018-12-06T21:37:00.000Z,4.1
2018-12-06T21:42:00.000Z,4.1
2018-12-06T21:47:00.000Z,4.1
2018-12-06T21:52:00.000Z,4.1
2018-12-06T21:57:00.000Z,4.1
2018-12-06T22:02:00.000Z,4.1
2018-12-06T22:07:00.000Z,4.0
2018-12-06T22:12:00.000Z,4.0
2018-12-06T22:17:00.000Z,4.0
2018-12-06T22:22:00.000Z,4.0
2018-12-06T22:27:00.000Z,4.0
2018-12-06T22:32:00.000Z,4.0
2018-12-06T22:37:00.000Z,4.0
2018-12-06T22:42:00.000Z,4.1
2018-12-06T22:47:00.000Z,4.0
2018-12-06T22:52:00.000Z,4.0
2018-12-06T22:57:00.000Z,4.1
2018-12-06T23:02:00.000Z,4.1
2018-12-06T23:07:00.000Z,4.1
2018-12-06T23:12:00.000Z,4.2
2018-12-06T23:17:00.000Z,4.1
2018-12-06T23:22:00.000Z,4.0
2018-12-06T23:27:00.000Z,3.9
2018-12-06T23:32:00.000Z,3.9
2018-12-06T23:37:00.000Z,3.9
2018-12-06T23:42:00.000Z,3.9
2018-12-06T23:47:00.000Z,3.9
2018-12-06T23:52:00.000Z,3.9
2018-12-06T23:57:00.000Z,3.9
